Ek-star — LAMT5 — position and weather

sailwx.info

Track history (hours):
 
Tides and Currents Weather Stations Pressure Air Temp Water Temp Dewpoint Dewpoint Depression Visibility Wind Speed Wind Dir Waves Ship Positions

Ek-star

Last reported at 2014-Sep-23 21:33 UTC. Time now 2014-Sep-23 22:31 UTC.
Position N 54°47' E 013°04'.

Length 135 m; draft 9.1 m.

Type: Ship (hazmat cat A). MMSI: 257433000.

Date/timePositionNaut miles runAvg speedWind from/ knotsBaromVisibWave heightAir tempDewpointWater temp
2014-Sep-23 21:33N 54°47' E 013°04'1312.8
2014-Sep-23 20:33N 54°46' E 013°26'1111.1
2014-Sep-23 19:33N 54°39' E 013°41'1313.0
2014-Sep-23 18:33N 54°27' E 013°52'1412.6
2014-Sep-23 17:28N 54°17' E 014°07'1111.8
2014-Sep-23 16:33N 54°07' E 014°14'1010.6
2014-Sep-23 15:33N 53°57' E 014°16'2 1.9
2014-Sep-23 14:31N 53°55' E 014°16'0 0.0
2014-Sep-23 13:31N 53°55' E 014°16'0 0.0
2014-Sep-23 12:32N 53°55' E 014°16'0 0.0
2014-Sep-23 11:33N 53°55' E 014°16'0 0.0
2014-Sep-23 10:33N 53°55' E 014°16'0 0.0
2014-Sep-23 09:33N 53°55' E 014°16'0 0.0
2014-Sep-23 08:33N 53°55' E 014°16'0 0.0
2014-Sep-23 07:33N 53°55' E 014°16'0 0.0
2014-Sep-23 06:33N 53°55' E 014°16'0 0.0
2014-Sep-23 05:33N 53°55' E 014°16'0 0.0
2014-Sep-23 04:33N 53°55' E 014°16'0 0.0
2014-Sep-23 03:33N 53°55' E 014°16'0 0.0
2014-Sep-23 02:33N 53°55' E 014°16'0 0.0
2014-Sep-23 01:34N 53°55' E 014°16'0 0.0
2014-Sep-23 00:33N 53°55' E 014°16'0 0.0
2014-Sep-22 23:33N 53°55' E 014°16'0 0.0
2014-Sep-22 22:33N 53°55' E 014°16'0 0.0
2014-Sep-22 21:33N 53°55' E 014°16'0 0.0
2014-Sep-22 20:34N 53°55' E 014°16'0 0.0
2014-Sep-22 19:33N 53°55' E 014°16'0 0.0
2014-Sep-22 18:34N 53°55' E 014°16'0 0.0
2014-Sep-22 17:34N 53°55' E 014°16'0 0.0
2014-Sep-22 16:34N 53°55' E 014°16'0 0.0
2014-Sep-22 15:33N 53°55' E 014°16'0 0.0
2014-Sep-22 14:33N 53°55' E 014°16'0 0.0
2014-Sep-22 13:34N 53°55' E 014°16'0 0.0
2014-Sep-22 12:33N 53°55' E 014°16'0 0.0
2014-Sep-22 11:34N 53°55' E 014°16'0 0.0
2014-Sep-22 10:34N 53°55' E 014°16'0 0.0
2014-Sep-22 09:33N 53°55' E 014°16'2 1.9
2014-Sep-22 08:33N 53°56' E 014°16'1513.4
2014-Sep-22 07:26N 54°11' E 014°11'1313.0
2014-Sep-22 06:25N 54°24' E 014°05'910.2
2014-Sep-22 05:33N 54°30' E 014°15'5911.4
2014-Sep-22 00:25N 55°06' E 015°35'13812.7
2014-Sep-21 13:33N 57°09' E 017°27'1212.5
2014-Sep-21 12:33N 57°21' E 017°35'1412.6
2014-Sep-21 11:25N 57°34' E 017°46'109 9.1
2014-Sep-20 23:34N 59°22' E 018°16'4 0.4
2014-Sep-20 14:30N 59°19' E 018°10'0 0.0
2014-Sep-20 03:28N 59°19' E 018°10'3 3.5
2014-Sep-20 02:30N 59°22' E 018°15'94 8.5
2014-Sep-19 15:28N 57°48' E 018°05'1213.1
2014-Sep-19 14:33N 57°37' E 017°56'1313.0
2014-Sep-19 13:33N 57°25' E 017°47'1313.1
2014-Sep-19 12:33N 57°13' E 017°38'1813.0
2014-Sep-19 11:10N 56°56' E 017°25'812.9
2014-Sep-19 10:33N 56°48' E 017°20'2612.9
2014-Sep-19 08:33N 56°24' E 017°03'1313.0
2014-Sep-19 07:33N 56°12' E 016°54'1212.3
2014-Sep-19 06:33N 56°02' E 016°42'1313.0
2014-Sep-19 05:33N 55°56' E 016°21'1313.4
2014-Sep-19 04:33N 55°50' E 016°00'1413.7
2014-Sep-19 03:34N 55°43' E 015°39'1413.5
2014-Sep-19 02:33N 55°36' E 015°18'1413.7
2014-Sep-19 01:34N 55°30' E 014°57'1413.5
2014-Sep-19 00:33N 55°23' E 014°37'1313.2
2014-Sep-18 23:33N 55°12' E 014°23'1313.3
2014-Sep-18 22:33N 55°02' E 014°08'1313.0
2014-Sep-18 21:34N 54°57' E 013°47'1313.2
2014-Sep-18 20:33N 54°53' E 013°25'1313.2
2014-Sep-18 19:33N 54°49' E 013°03'1313.0
2014-Sep-18 18:33N 54°44' E 012°42'1312.7
2014-Sep-18 17:33N 54°37' E 012°24'1312.6
2014-Sep-18 16:33N 54°26' E 012°13'1211.5
2014-Sep-18 15:33N 54°25' E 011°53'1212.1
2014-Sep-18 14:33N 54°28' E 011°34'1212.4
2014-Sep-18 13:33N 54°34' E 011°14'1111.2
2014-Sep-18 12:33N 54°40' E 010°58'66 2.0
2014-Sep-17 03:30N 55°38' E 010°03'1512.9
2014-Sep-17 02:22N 55°39' E 010°29'1113.1
2014-Sep-17 01:31N 55°44' E 010°47'1312.7
2014-Sep-17 00:31N 55°55' E 010°57'1313.3
2014-Sep-16 23:33N 56°06' E 011°08'1413.3
2014-Sep-16 22:32N 56°17' E 011°23'1313.3
2014-Sep-16 21:33N 56°29' E 011°35'1313.2
2014-Sep-16 20:33N 56°40' E 011°47'1211.9
2014-Sep-16 19:33N 56°52' E 011°48'1313.1
2014-Sep-16 18:34N 57°04' E 011°40'1312.5
2014-Sep-16 17:33N 57°17' E 011°38'1313.1
2014-Sep-16 16:33N 57°30' E 011°38'6 6.3
2014-Sep-16 15:33N 57°36' E 011°41'0 0.0
2014-Sep-16 14:33N 57°36' E 011°40'0 0.0
2014-Sep-16 13:33N 57°36' E 011°40'0 0.0
2014-Sep-16 12:33N 57°36' E 011°40'0 0.0
2014-Sep-16 11:33N 57°36' E 011°40'5 5.4
2014-Sep-16 10:33N 57°31' E 011°37'1313.1
2014-Sep-16 09:33N 57°18' E 011°43'1312.8
2014-Sep-16 08:32N 57°09' E 011°60'1313.4
2014-Sep-16 07:33N 56°58' E 012°12'9 8.6
2014-Sep-16 06:29N 56°51' E 012°25'3 2.9
2014-Sep-16 05:28N 56°53' E 012°29'0 0.0
2014-Sep-16 04:33N 56°53' E 012°29'0 0.0
2014-Sep-16 03:15N 56°53' E 012°29'0 0.0
2014-Sep-16 02:33N 56°53' E 012°29'0 0.0
2014-Sep-16 01:28N 56°53' E 012°29'0 0.0
2014-Sep-15 23:27N 56°53' E 012°29'0 0.0
2014-Sep-15 22:33N 56°53' E 012°29'0 0.0
2014-Sep-15 21:33N 56°53' E 012°29'0 0.0
2014-Sep-15 20:33N 56°53' E 012°29'0 0.0
2014-Sep-15 19:33N 56°53' E 012°29'0 0.0
2014-Sep-15 18:33N 56°53' E 012°29'0 0.0
2014-Sep-15 17:27N 56°53' E 012°29'0 0.0
2014-Sep-15 16:33N 56°53' E 012°29'0 0.0
2014-Sep-15 15:33N 56°53' E 012°29'0 0.0
2014-Sep-15 14:27N 56°53' E 012°29'0 0.0
2014-Sep-15 13:15N 56°53' E 012°29'0 0.0
2014-Sep-15 12:33N 56°53' E 012°29'0 0.0
2014-Sep-15 11:21N 56°53' E 012°29'0 0.0
2014-Sep-15 09:23N 56°53' E 012°29'0 0.0
2014-Sep-15 08:29N 56°53' E 012°29'0 0.0
2014-Sep-15 07:29N 56°53' E 012°29'0 0.0
2014-Sep-15 06:29N 56°53' E 012°29'0 0.0
2014-Sep-15 05:29N 56°53' E 012°29'0 0.0
2014-Sep-15 04:29N 56°53' E 012°29'0 0.0
2014-Sep-15 03:11N 56°53' E 012°29'0 0.0
2014-Sep-15 02:29N 56°53' E 012°29'0 0.0
2014-Sep-15 01:05N 56°53' E 012°29'0 0.0
2014-Sep-15 00:17N 56°53' E 012°29'0 0.0
2014-Sep-14 23:17N 56°53' E 012°29'0 0.0
2014-Sep-14 22:23N 56°53' E 012°29'0 0.0
2014-Sep-14 21:11N 56°53' E 012°29'0 0.0
2014-Sep-14 20:11N 56°53' E 012°29'0 0.0
2014-Sep-14 19:11N 56°53' E 012°29'0 0.0
2014-Sep-14 18:23N 56°53' E 012°29'0 0.0
2014-Sep-14 17:17N 56°53' E 012°29'0 0.0
2014-Sep-14 16:23N 56°53' E 012°29'0 0.0
2014-Sep-14 15:17N 56°53' E 012°29'0 0.0
2014-Sep-14 10:29N 56°53' E 012°29'0 0.0
2014-Sep-14 09:15N 56°53' E 012°29'0 0.0
2014-Sep-14 08:15N 56°53' E 012°29'0 0.0
2014-Sep-14 07:27N 56°53' E 012°29'0 0.0
2014-Sep-14 06:33N 56°53' E 012°29'0 0.0
2014-Sep-14 05:33N 56°53' E 012°29'0 0.0
2014-Sep-14 04:33N 56°53' E 012°29'0 0.0
2014-Sep-14 03:09N 56°53' E 012°29'0 0.0
2014-Sep-14 02:21N 56°53' E 012°29'0 0.0
2014-Sep-14 01:33N 56°53' E 012°29'  
Track history (hours):
 
Tides and Currents Weather Stations Pressure Air Temp Water Temp Dewpoint Dewpoint Depression Visibility Wind Speed Wind Dir Waves Ship Positions

Ek-star

Last reported at 2014-Sep-23 21:33 UTC. Time now 2014-Sep-23 22:31 UTC.
Position N 54°47' E 013°04'.

Length 135 m; draft 9.1 m.

Type: Ship (hazmat cat A). MMSI: 257433000.

Date/timePositionNaut miles runAvg speedWind from/ knotsBaromVisibWave heightAir tempDewpointWater temp
2014-Sep-23 21:33N 54°47' E 013°04'1312.8
2014-Sep-23 20:33N 54°46' E 013°26'1111.1
2014-Sep-23 19:33N 54°39' E 013°41'1313.0
2014-Sep-23 18:33N 54°27' E 013°52'1412.6
2014-Sep-23 17:28N 54°17' E 014°07'1111.8
2014-Sep-23 16:33N 54°07' E 014°14'1010.6
2014-Sep-23 15:33N 53°57' E 014°16'2 1.9
2014-Sep-23 14:31N 53°55' E 014°16'0 0.0
2014-Sep-23 13:31N 53°55' E 014°16'0 0.0
2014-Sep-23 12:32N 53°55' E 014°16'0 0.0
2014-Sep-23 11:33N 53°55' E 014°16'0 0.0
2014-Sep-23 10:33N 53°55' E 014°16'0 0.0
2014-Sep-23 09:33N 53°55' E 014°16'0 0.0
2014-Sep-23 08:33N 53°55' E 014°16'0 0.0
2014-Sep-23 07:33N 53°55' E 014°16'0 0.0
2014-Sep-23 06:33N 53°55' E 014°16'0 0.0
2014-Sep-23 05:33N 53°55' E 014°16'0 0.0
2014-Sep-23 04:33N 53°55' E 014°16'0 0.0
2014-Sep-23 03:33N 53°55' E 014°16'0 0.0
2014-Sep-23 02:33N 53°55' E 014°16'0 0.0
2014-Sep-23 01:34N 53°55' E 014°16'0 0.0
2014-Sep-23 00:33N 53°55' E 014°16'0 0.0
2014-Sep-22 23:33N 53°55' E 014°16'0 0.0
2014-Sep-22 22:33N 53°55' E 014°16'0 0.0
2014-Sep-22 21:33N 53°55' E 014°16'0 0.0
2014-Sep-22 20:34N 53°55' E 014°16'0 0.0
2014-Sep-22 19:33N 53°55' E 014°16'0 0.0
2014-Sep-22 18:34N 53°55' E 014°16'0 0.0
2014-Sep-22 17:34N 53°55' E 014°16'0 0.0
2014-Sep-22 16:34N 53°55' E 014°16'0 0.0
2014-Sep-22 15:33N 53°55' E 014°16'0 0.0
2014-Sep-22 14:33N 53°55' E 014°16'0 0.0
2014-Sep-22 13:34N 53°55' E 014°16'0 0.0
2014-Sep-22 12:33N 53°55' E 014°16'0 0.0
2014-Sep-22 11:34N 53°55' E 014°16'0 0.0
2014-Sep-22 10:34N 53°55' E 014°16'0 0.0
2014-Sep-22 09:33N 53°55' E 014°16'2 1.9
2014-Sep-22 08:33N 53°56' E 014°16'1513.4
2014-Sep-22 07:26N 54°11' E 014°11'1313.0
2014-Sep-22 06:25N 54°24' E 014°05'910.2
2014-Sep-22 05:33N 54°30' E 014°15'5911.4
2014-Sep-22 00:25N 55°06' E 015°35'13812.7
2014-Sep-21 13:33N 57°09' E 017°27'1212.5
2014-Sep-21 12:33N 57°21' E 017°35'1412.6
2014-Sep-21 11:25N 57°34' E 017°46'109 9.1
2014-Sep-20 23:34N 59°22' E 018°16'4 0.4
2014-Sep-20 14:30N 59°19' E 018°10'0 0.0
2014-Sep-20 03:28N 59°19' E 018°10'3 3.5
2014-Sep-20 02:30N 59°22' E 018°15'94 8.5
2014-Sep-19 15:28N 57°48' E 018°05'1213.1
2014-Sep-19 14:33N 57°37' E 017°56'1313.0
2014-Sep-19 13:33N 57°25' E 017°47'1313.1
2014-Sep-19 12:33N 57°13' E 017°38'1813.0
2014-Sep-19 11:10N 56°56' E 017°25'812.9
2014-Sep-19 10:33N 56°48' E 017°20'2612.9
2014-Sep-19 08:33N 56°24' E 017°03'1313.0
2014-Sep-19 07:33N 56°12' E 016°54'1212.3
2014-Sep-19 06:33N 56°02' E 016°42'1313.0
2014-Sep-19 05:33N 55°56' E 016°21'1313.4
2014-Sep-19 04:33N 55°50' E 016°00'1413.7
2014-Sep-19 03:34N 55°43' E 015°39'1413.5
2014-Sep-19 02:33N 55°36' E 015°18'1413.7
2014-Sep-19 01:34N 55°30' E 014°57'1413.5
2014-Sep-19 00:33N 55°23' E 014°37'1313.2
2014-Sep-18 23:33N 55°12' E 014°23'1313.3
2014-Sep-18 22:33N 55°02' E 014°08'1313.0
2014-Sep-18 21:34N 54°57' E 013°47'1313.2
2014-Sep-18 20:33N 54°53' E 013°25'1313.2
2014-Sep-18 19:33N 54°49' E 013°03'1313.0
2014-Sep-18 18:33N 54°44' E 012°42'1312.7
2014-Sep-18 17:33N 54°37' E 012°24'1312.6
2014-Sep-18 16:33N 54°26' E 012°13'1211.5
2014-Sep-18 15:33N 54°25' E 011°53'1212.1
2014-Sep-18 14:33N 54°28' E 011°34'1212.4
2014-Sep-18 13:33N 54°34' E 011°14'1111.2
2014-Sep-18 12:33N 54°40' E 010°58'66 2.0
2014-Sep-17 03:30N 55°38' E 010°03'1512.9
2014-Sep-17 02:22N 55°39' E 010°29'1113.1
2014-Sep-17 01:31N 55°44' E 010°47'1312.7
2014-Sep-17 00:31N 55°55' E 010°57'1313.3
2014-Sep-16 23:33N 56°06' E 011°08'1413.3
2014-Sep-16 22:32N 56°17' E 011°23'1313.3
2014-Sep-16 21:33N 56°29' E 011°35'1313.2
2014-Sep-16 20:33N 56°40' E 011°47'1211.9
2014-Sep-16 19:33N 56°52' E 011°48'1313.1
2014-Sep-16 18:34N 57°04' E 011°40'1312.5
2014-Sep-16 17:33N 57°17' E 011°38'1313.1
2014-Sep-16 16:33N 57°30' E 011°38'6 6.3
2014-Sep-16 15:33N 57°36' E 011°41'0 0.0
2014-Sep-16 14:33N 57°36' E 011°40'0 0.0
2014-Sep-16 13:33N 57°36' E 011°40'0 0.0
2014-Sep-16 12:33N 57°36' E 011°40'0 0.0
2014-Sep-16 11:33N 57°36' E 011°40'5 5.4
2014-Sep-16 10:33N 57°31' E 011°37'1313.1
2014-Sep-16 09:33N 57°18' E 011°43'1312.8
2014-Sep-16 08:32N 57°09' E 011°60'1313.4
2014-Sep-16 07:33N 56°58' E 012°12'9 8.6
2014-Sep-16 06:29N 56°51' E 012°25'3 2.9
2014-Sep-16 05:28N 56°53' E 012°29'0 0.0
2014-Sep-16 04:33N 56°53' E 012°29'0 0.0
2014-Sep-16 03:15N 56°53' E 012°29'0 0.0
2014-Sep-16 02:33N 56°53' E 012°29'0 0.0
2014-Sep-16 01:28N 56°53' E 012°29'0 0.0
2014-Sep-15 23:27N 56°53' E 012°29'0 0.0
2014-Sep-15 22:33N 56°53' E 012°29'0 0.0
2014-Sep-15 21:33N 56°53' E 012°29'0 0.0
2014-Sep-15 20:33N 56°53' E 012°29'0 0.0
2014-Sep-15 19:33N 56°53' E 012°29'0 0.0
2014-Sep-15 18:33N 56°53' E 012°29'0 0.0
2014-Sep-15 17:27N 56°53' E 012°29'0 0.0
2014-Sep-15 16:33N 56°53' E 012°29'0 0.0
2014-Sep-15 15:33N 56°53' E 012°29'0 0.0
2014-Sep-15 14:27N 56°53' E 012°29'0 0.0
2014-Sep-15 13:15N 56°53' E 012°29'0 0.0
2014-Sep-15 12:33N 56°53' E 012°29'0 0.0
2014-Sep-15 11:21N 56°53' E 012°29'0 0.0
2014-Sep-15 09:23N 56°53' E 012°29'0 0.0
2014-Sep-15 08:29N 56°53' E 012°29'0 0.0
2014-Sep-15 07:29N 56°53' E 012°29'0 0.0
2014-Sep-15 06:29N 56°53' E 012°29'0 0.0
2014-Sep-15 05:29N 56°53' E 012°29'0 0.0
2014-Sep-15 04:29N 56°53' E 012°29'0 0.0
2014-Sep-15 03:11N 56°53' E 012°29'0 0.0
2014-Sep-15 02:29N 56°53' E 012°29'0 0.0
2014-Sep-15 01:05N 56°53' E 012°29'0 0.0
2014-Sep-15 00:17N 56°53' E 012°29'0 0.0
2014-Sep-14 23:17N 56°53' E 012°29'0 0.0
2014-Sep-14 22:23N 56°53' E 012°29'0 0.0
2014-Sep-14 21:11N 56°53' E 012°29'0 0.0
2014-Sep-14 20:11N 56°53' E 012°29'0 0.0
2014-Sep-14 19:11N 56°53' E 012°29'0 0.0
2014-Sep-14 18:23N 56°53' E 012°29'0 0.0
2014-Sep-14 17:17N 56°53' E 012°29'0 0.0
2014-Sep-14 16:23N 56°53' E 012°29'0 0.0
2014-Sep-14 15:17N 56°53' E 012°29'0 0.0
2014-Sep-14 10:29N 56°53' E 012°29'0 0.0
2014-Sep-14 09:15N 56°53' E 012°29'0 0.0
2014-Sep-14 08:15N 56°53' E 012°29'0 0.0
2014-Sep-14 07:27N 56°53' E 012°29'0 0.0
2014-Sep-14 06:33N 56°53' E 012°29'0 0.0
2014-Sep-14 05:33N 56°53' E 012°29'0 0.0
2014-Sep-14 04:33N 56°53' E 012°29'0 0.0
2014-Sep-14 03:09N 56°53' E 012°29'0 0.0
2014-Sep-14 02:21N 56°53' E 012°29'0 0.0
2014-Sep-14 01:33N 56°53' E 012°29'  

Dump ship's entire track history